Time;durP1;ratioP1;P1;durP2;ratioP2;P2;SDS_P1;SDS_P2;PMS_P1;PMS_P2;Temp;Humidity;BMP_temperature;BMP_pressure;BME280_temperature;BME280_humidity;BME280_pressure;Samples;Min_cycle;Max_cycle;Signal;HPM_P1;HPM_P2
2021/11/26 00:00:03;;;;;;;60.4;74.4;;;;;;;2.9;79.3;97800;;;;
2021/11/26 00:10:03;;;;;;;60.4;74.4;;;;;;;2.8;78.4;97790;;;;
2021/11/26 00:21:03;;;;;;;60.4;74.4;;;;;;;2.4;76.6;97790;;;;
2021/11/26 00:31:03;;;;;;;71.8;80.8;;;;;;;2.2;76.8;97810;;;;
2021/11/26 00:41:03;;;;;;;71.8;80.8;;;;;;;2.1;77.5;97800;;;;
2021/11/26 00:51:03;;;;;;;71.8;80.8;;;;;;;2;77;97780;;;;
2021/11/26 01:01:03;;;;;;;96.4;112;;;;;;;2;77.6;97780;;;;
2021/11/26 01:11:03;;;;;;;96.4;112;;;;;;;2.1;78;97750;;;;
2021/11/26 01:22:03;;;;;;;96.4;112;;;;;;;2.3;78.3;97730;;;;
2021/11/26 01:32:03;;;;;;;86.2;99.4;;;;;;;2.3;77.8;97720;;;;
2021/11/26 01:42:03;;;;;;;86.2;99.4;;;;;;;2.3;78.2;97710;;;;
2021/11/26 01:53:03;;;;;;;83.5;96.8;;;;;;;2.3;77.7;97710;;;;
2021/11/26 02:03:03;;;;;;;83.5;96.8;;;;;;;2.4;77.4;97740;;;;
2021/11/26 02:14:03;;;;;;;83.5;96.8;;;;;;;2.3;77.3;97720;;;;
2021/11/26 02:24:03;;;;;;;94.5;105.1;;;;;;;2.4;77.3;97700;;;;
2021/11/26 02:34:03;;;;;;;94.5;105.1;;;;;;;2.3;77.2;97690;;;;
2021/11/26 02:45:03;;;;;;;94.5;105.1;;;;;;;2.4;77.6;97690;;;;
2021/11/26 02:56:03;;;;;;;86.7;101;;;;;;;2.5;77.7;97650;;;;
2021/11/26 03:07:03;;;;;;;86.7;101;;;;;;;2.5;77.7;97630;;;;
2021/11/26 03:17:03;;;;;;;86.7;101;;;;;;;2.6;77.6;97620;;;;
2021/11/26 03:28:03;;;;;;;82.6;95.8;;;;;;;2.6;78;97620;;;;
2021/11/26 03:38:03;;;;;;;82.6;95.8;;;;;;;2.5;77.8;97620;;;;
2021/11/26 03:49:03;;;;;;;82.6;95.8;;;;;;;2.5;78.7;97590;;;;
2021/11/26 04:00:04;;;;;;;84.5;94.8;;;;;;;2.8;78.8;97580;;;;
2021/11/26 04:10:03;;;;;;;84.5;94.8;;;;;;;2.9;78.7;97570;;;;
2021/11/26 04:20:03;;;;;;;84.5;94.8;;;;;;;3;78.1;97570;;;;
2021/11/26 04:30:03;;;;;;;85.9;103.8;;;;;;;2.9;77.3;97550;;;;
2021/11/26 04:41:03;;;;;;;85.9;103.8;;;;;;;2.8;77.4;97550;;;;
2021/11/26 04:51:03;;;;;;;85.9;103.8;;;;;;;2.7;77.6;97540;;;;
2021/11/26 05:01:03;;;;;;;75.4;85.6;;;;;;;2.7;78.6;97520;;;;
2021/11/26 05:11:03;;;;;;;75.4;85.6;;;;;;;2.7;79.2;97520;;;;
2021/11/26 05:22:03;;;;;;;75.4;85.6;;;;;;;2.8;79.5;97500;;;;
2021/11/26 05:33:03;;;;;;;67.6;77.2;;;;;;;2.9;79.6;97510;;;;
2021/11/26 05:43:03;;;;;;;67.6;77.2;;;;;;;2.9;80;97500;;;;
2021/11/26 05:53:03;;;;;;;64.3;72.3;;;;;;;3;80.4;97490;;;;
2021/11/26 06:04:03;;;;;;;64.3;72.3;;;;;;;3;80.6;97480;;;;
2021/11/26 06:14:03;;;;;;;64.3;72.3;;;;;;;3.1;80.4;97460;;;;
2021/11/26 06:25:03;;;;;;;77.3;90.3;;;;;;;3.2;80.3;97460;;;;
2021/11/26 06:35:03;;;;;;;77.3;90.3;;;;;;;3.4;79.8;97460;;;;
2021/11/26 06:45:03;;;;;;;77.3;90.3;;;;;;;3.4;79.6;97460;;;;
2021/11/26 06:56:03;;;;;;;63.5;82.2;;;;;;;3.5;79.7;97460;;;;
2021/11/26 07:16:15;;;;;;;63;76.2;;;;;;;3.5;80.2;97430;;;;
2021/11/26 07:26:14;;;;;;;63;76.2;;;;;;;3.5;80.5;97430;;;;
2021/11/26 07:36:15;;;;;;;63;76.2;;;;;;;3.6;80.1;97420;;;;
2021/11/26 07:46:14;;;;;;;58.2;71.2;;;;;;;3.5;80.2;97410;;;;
2021/11/26 07:56:14;;;;;;;58.2;71.2;;;;;;;3.5;80.4;97400;;;;
2021/11/26 08:07:14;;;;;;;58.2;71.2;;;;;;;3.5;81.1;97370;;;;
2021/11/26 08:18:14;;;;;;;62.1;72.1;;;;;;;3.5;81.5;97360;;;;
2021/11/26 08:28:14;;;;;;;62.1;72.1;;;;;;;3.8;81.5;97350;;;;
2021/11/26 08:39:14;;;;;;;60;67.5;;;;;;;3.8;81;97340;;;;
2021/11/26 08:50:16;;;;;;;60;67.5;;;;;;;3.8;81.7;97340;;;;
2021/11/26 09:00:14;;;;;;;60;67.5;;;;;;;4;81.6;97320;;;;
2021/11/26 09:10:14;;;;;;;63.3;72.2;;;;;;;4;81.5;97320;;;;
2021/11/26 09:20:14;;;;;;;63.3;72.2;;;;;;;4.1;81.5;97310;;;;
2021/11/26 09:31:16;;;;;;;63.3;72.2;;;;;;;3.9;81.8;97280;;;;
2021/11/26 09:41:15;;;;;;;60.8;76;;;;;;;4;81.6;97260;;;;
2021/11/26 09:51:15;;;;;;;60.8;76;;;;;;;4;81.8;97240;;;;
2021/11/26 10:02:15;;;;;;;60.8;76;;;;;;;3.8;82.1;97230;;;;
2021/11/26 10:12:15;;;;;;;65.1;80.7;;;;;;;3.9;81.9;97200;;;;
2021/11/26 10:22:15;;;;;;;65.1;80.7;;;;;;;4.2;81.7;97180;;;;
2021/11/26 10:33:16;;;;;;;65.1;80.7;;;;;;;4.2;81.3;97140;;;;
2021/11/26 10:43:15;;;;;;;66.9;79.3;;;;;;;4.2;81.4;97110;;;;
2021/11/26 11:04:15;;;;;;;66.9;79.3;;;;;;;4.1;81.8;97080;;;;
2021/11/26 11:15:15;;;;;;;58.2;68.3;;;;;;;4.2;82;97050;;;;
2021/11/26 11:26:15;;;;;;;58.2;68.3;;;;;;;4.2;81.6;97030;;;;
2021/11/26 11:37:18;;;;;;;57.6;67.5;;;;;;;4.2;82.2;97010;;;;
2021/11/26 11:47:15;;;;;;;57.6;67.5;;;;;;;4.3;81.9;96990;;;;
2021/11/26 11:57:15;;;;;;;57.6;67.5;;;;;;;4.1;81.9;96980;;;;
2021/11/26 12:07:15;;;;;;;58.2;73.8;;;;;;;4.2;82.2;96970;;;;
2021/11/26 12:17:15;;;;;;;58.2;73.8;;;;;;;4.2;82.1;96940;;;;
2021/11/26 12:28:19;;;;;;;58.2;73.8;;;;;;;4.2;82.4;96920;;;;
2021/11/26 12:39:15;;;;;;;61;69.4;;;;;;;4.2;82.6;96910;;;;
2021/11/26 12:51:02;;;;;;;61;69.4;;;;;;;4.3;82.1;96890;;;;
2021/11/26 12:59:15;;;;;;;61;69.4;;;;;;;4.3;82.3;96880;;;;
2021/11/26 13:09:15;;;;;;;58.5;67.8;;;;;;;4.1;82.7;96860;;;;
2021/11/26 13:20:15;;;;;;;58.5;67.8;;;;;;;4.3;82.2;96840;;;;
2021/11/26 13:30:15;;;;;;;58.5;67.8;;;;;;;4.4;82;96810;;;;
2021/11/26 13:41:15;;;;;;;51.4;62.3;;;;;;;4.5;81.6;96800;;;;
2021/11/26 13:51:15;;;;;;;51.4;62.3;;;;;;;4.6;81.6;96790;;;;
2021/11/26 14:02:15;;;;;;;51.4;62.3;;;;;;;4.5;82;96780;;;;
2021/11/26 14:12:15;;;;;;;100;132.3;;;;;;;4.4;82.4;96760;;;;
2021/11/26 14:22:15;;;;;;;100;132.3;;;;;;;4.4;82.5;96750;;;;
2021/11/26 14:32:15;;;;;;;100;132.3;;;;;;;4.6;82.2;96740;;;;
2021/11/26 14:43:16;;;;;;;60;68.9;;;;;;;4.7;81.9;96720;;;;
2021/11/26 14:53:15;;;;;;;60;68.9;;;;;;;4.6;82.1;96710;;;;
2021/11/26 15:03:15;;;;;;;60;68.9;;;;;;;4.8;81.4;96690;;;;
2021/11/26 15:14:18;;;;;;;43.2;50.2;;;;;;;4.8;81.4;96670;;;;
2021/11/26 15:24:17;;;;;;;43.2;50.2;;;;;;;4.9;81.5;96650;;;;
2021/11/26 15:34:15;;;;;;;43.2;50.2;;;;;;;4.9;81.3;96630;;;;
2021/11/26 15:45:15;;;;;;;48.2;54.7;;;;;;;5;80.9;96610;;;;
2021/11/26 15:56:15;;;;;;;48.2;54.7;;;;;;;5;80.8;96590;;;;
2021/11/26 16:06:15;;;;;;;48.2;54.7;;;;;;;5;80.5;96580;;;;
2021/11/26 16:16:15;;;;;;;45.4;52.8;;;;;;;5;81;96570;;;;
2021/11/26 16:26:16;;;;;;;45.4;52.8;;;;;;;5;81.1;96550;;;;
2021/11/26 16:36:15;;;;;;;45.4;52.8;;;;;;;5.1;80.8;96540;;;;
2021/11/26 16:48:35;;;;;;;45.6;50.7;;;;;;;5.1;80.7;96520;;;;
2021/11/26 16:58:35;;;;;;;45.6;50.7;;;;;;;5.1;80.8;96510;;;;
2021/11/26 17:08:36;;;;;;;45.6;50.7;;;;;;;5.2;80.7;96500;;;;
2021/11/26 17:18:35;;;;;;;43.7;50.5;;;;;;;5.3;80.6;96480;;;;
2021/11/26 17:29:35;;;;;;;43.7;50.5;;;;;;;5.2;80.3;96470;;;;
2021/11/26 17:40:35;;;;;;;59.6;68.6;;;;;;;5.1;81;96460;;;;
2021/11/26 17:51:35;;;;;;;59.6;68.6;;;;;;;5.1;81.2;96440;;;;
2021/11/26 18:01:37;;;;;;;59.6;68.6;;;;;;;5;81.9;96420;;;;
2021/11/26 18:12:37;;;;;;;40.6;47.7;;;;;;;5.1;81.2;96400;;;;
2021/11/26 18:23:35;;;;;;;40.6;47.7;;;;;;;5.1;81;96390;;;;
2021/11/26 18:34:35;;;;;;;40.6;47.7;;;;;;;5;81.6;96370;;;;
2021/11/26 18:44:35;;;;;;;44.2;50.9;;;;;;;5;81.6;96350;;;;
2021/11/26 18:55:35;;;;;;;44.2;50.9;;;;;;;5.1;81.4;96340;;;;
2021/11/26 19:05:38;;;;;;;44.2;50.9;;;;;;;5;81.2;96330;;;;
2021/11/26 19:15:35;;;;;;;59.2;67.5;;;;;;;4.9;81.7;96320;;;;
2021/11/26 19:26:35;;;;;;;59.2;67.5;;;;;;;5;81.7;96310;;;;
2021/11/26 19:37:36;;;;;;;59.2;67.5;;;;;;;4.8;81.8;96310;;;;
2021/11/26 19:47:35;;;;;;;56.2;63.1;;;;;;;4.7;82;96300;;;;
2021/11/26 19:58:35;;;;;;;56.2;63.1;;;;;;;4.7;82.2;96300;;;;
2021/11/26 20:09:37;;;;;;;56.2;63.1;;;;;;;4.5;82.8;96300;;;;
2021/11/26 20:20:35;;;;;;;59.2;67.2;;;;;;;4.6;82.5;96300;;;;
2021/11/26 20:30:35;;;;;;;59.2;67.2;;;;;;;4.6;82.5;96280;;;;
2021/11/26 20:40:35;;;;;;;47.9;53.5;;;;;;;4.5;82.5;96280;;;;
2021/11/26 20:51:35;;;;;;;47.9;53.5;;;;;;;4.2;83.4;96270;;;;
2021/11/26 21:02:35;;;;;;;47.9;53.5;;;;;;;4.3;83.3;96280;;;;
2021/11/26 21:12:35;;;;;;;49.2;54.9;;;;;;;4.1;83.5;96270;;;;
2021/11/26 21:22:35;;;;;;;49.2;54.9;;;;;;;4.1;83.5;96270;;;;
2021/11/26 21:33:35;;;;;;;49.2;54.9;;;;;;;4.1;83.5;96270;;;;
2021/11/26 21:44:35;;;;;;;33.8;37.8;;;;;;;3.8;83;96270;;;;
2021/11/26 21:55:35;;;;;;;33.8;37.8;;;;;;;3.7;83.1;96290;;;;
2021/11/26 22:05:35;;;;;;;33.8;37.8;;;;;;;3.5;82.4;96290;;;;
2021/11/26 22:16:35;;;;;;;29.2;33.2;;;;;;;3.5;82.7;96290;;;;
2021/11/26 22:26:35;;;;;;;29.2;33.2;;;;;;;3.4;82.8;96300;;;;
2021/11/26 22:37:35;;;;;;;29.2;33.2;;;;;;;3.2;82.8;96320;;;;
2021/11/26 22:47:35;;;;;;;27.8;36.6;;;;;;;3.3;81.9;96320;;;;
2021/11/26 22:58:35;;;;;;;27.8;36.6;;;;;;;3.1;81.8;96330;;;;
2021/11/26 23:08:35;;;;;;;27.8;36.6;;;;;;;2.9;81.9;96330;;;;
2021/11/26 23:18:35;;;;;;;28.6;36.4;;;;;;;2.7;82.3;96330;;;;
2021/11/26 23:28:35;;;;;;;28.6;36.4;;;;;;;2.5;82.2;96350;;;;
2021/11/26 23:39:35;;;;;;;41.7;48.9;;;;;;;2.4;82.8;96350;;;;
2021/11/26 23:49:35;;;;;;;41.7;48.9;;;;;;;2.4;82.4;96350;;;;
